Terminal Aerodrome Forecast
Issued by NWS

Home | Current Version | Previous Version | Text Only | Print | Product List | Glossary On
Versions: 1 2 3 4 5 6 7 8 9 10 11 12 13 14 15 16 17 18 19
000
FTPA31 PHFO 202336
TAFHJH
TAF
PHJH 202336Z 2100/2124 32009KT P6SM SCT035
     FM210500 03008KT P6SM FEW040
      AMD NOT SKED 2104/2116=

USA.gov is the U.S. government's official web portal to all federal, state and local government web resources and services.